CheckWX is a tool to help pilots better visualize weather data.  It is not intended as a substitute for an official pre-flight weather briefing.

02:08:43 UTC

KABE TAF
Lehigh Valley International Airport
Allentown, Pennsylvania, USA
KABE 212321Z 2200/2224 34004KT P6SM BKN250 FM220200 VRB03KT P6SM SCT250 FM221500 22005KT P6SM SKC

Jan-22@
00:00 UTC

Jan-22 @ 00:00 UTC

Jan-22@
02:00 UTC

Jan-22 @ 02:00 UTC

KABE 212321Z 2200/2224 34004KT P6SM BKN250

Expired

Wind
  • 340° at 4 KTS
Cloud Levels
  • Broken at 25,000' AGL

Jan-22@
02:00 UTC

Jan-22 @ 02:00 UTC

Jan-22@
15:00 UTC

Jan-22 @ 15:00 UTC

FM220200 VRB03KT P6SM SCT250

From

From Standard forecast or significant change

Wind
  • Variable at 3 KTS
Cloud Levels
  • Scattered at 25,000' AGL

Jan-22@
15:00 UTC

Jan-22 @ 15:00 UTC

Jan-23@
00:00 UTC

Jan-23 @ 00:00 UTC

FM221500 22005KT P6SM SKC

From

From Standard forecast or significant change

Wind
  • 220° at 5 KTS
Cloud Levels
  • Clear skies